createdAt,value
2023-03-05T00:01:10.852Z,100.00
2023-03-05T00:03:37.938Z,100.00
2023-03-05T00:06:05.577Z,100.00
2023-03-05T00:08:33.072Z,100.00
2023-03-05T00:11:07.902Z,100.00
2023-03-05T00:13:35.112Z,100.00
2023-03-05T00:16:10.740Z,100.00
2023-03-05T00:18:38.192Z,100.00
2023-03-05T00:21:17.243Z,100.00
2023-03-05T00:23:44.222Z,100.00
2023-03-05T00:26:10.807Z,100.00
2023-03-05T00:28:37.358Z,100.00
2023-03-05T00:31:04.185Z,100.00
2023-03-05T00:33:30.881Z,100.00
2023-03-05T00:35:57.989Z,100.00
2023-03-05T00:38:24.694Z,99.95
2023-03-05T00:40:51.701Z,99.71
2023-03-05T00:43:18.258Z,100.00
2023-03-05T00:45:44.797Z,100.00
2023-03-05T00:48:11.381Z,100.00
2023-03-05T00:50:38.077Z,100.00
2023-03-05T00:53:04.851Z,100.00
2023-03-05T00:55:31.654Z,100.00
2023-03-05T00:57:58.350Z,100.00
2023-03-05T01:00:25.106Z,100.00
2023-03-05T01:02:51.763Z,100.00
2023-03-05T01:05:18.444Z,99.82
2023-03-05T01:07:45.041Z,99.98
2023-03-05T01:10:12.973Z,100.00
2023-03-05T01:12:39.844Z,100.00
2023-03-05T01:15:07.015Z,100.00
2023-03-05T01:17:34.629Z,100.00
2023-03-05T01:20:01.439Z,100.00
2023-03-05T01:22:28.124Z,100.00
2023-03-05T01:24:54.946Z,100.00
2023-03-05T01:27:21.667Z,100.00
2023-03-05T01:29:48.311Z,100.00
2023-03-05T01:32:15.018Z,100.00
2023-03-05T01:34:42.226Z,100.00
2023-03-05T01:37:09.523Z,100.00
2023-03-05T01:39:36.542Z,100.00
2023-03-05T01:42:04.449Z,99.79
2023-03-05T01:44:32.234Z,99.70
2023-03-05T01:46:58.919Z,99.75
2023-03-05T01:49:38.532Z,99.75
2023-03-05T01:52:17.653Z,100.00
2023-03-05T01:54:52.250Z,99.51
2023-03-05T01:57:44.559Z,99.71
2023-03-05T02:00:17.731Z,99.99
2023-03-05T02:02:49.051Z,99.71
2023-03-05T02:05:27.229Z,99.66
2023-03-05T02:07:59.281Z,99.83
2023-03-05T02:10:29.595Z,99.99
2023-03-05T02:12:59.296Z,99.83
2023-03-05T02:15:25.921Z,99.71
2023-03-05T02:17:52.669Z,100.00
2023-03-05T02:20:22.992Z,99.61
2023-03-05T02:22:49.531Z,98.97
2023-03-05T02:25:24.781Z,99.06
2023-03-05T02:28:00.308Z,99.26
2023-03-05T02:30:27.055Z,99.59
2023-03-05T02:32:53.828Z,99.74
2023-03-05T02:35:21.134Z,98.82
2023-03-05T02:37:47.895Z,99.75
2023-03-05T02:40:15.358Z,99.24
2023-03-05T02:42:42.593Z,99.42
2023-03-05T02:45:10.747Z,98.69
2023-03-05T02:47:37.745Z,99.19
2023-03-05T02:50:06.358Z,98.26
2023-03-05T02:52:33.061Z,97.04
2023-03-05T02:54:59.796Z,97.08
2023-03-05T02:57:26.365Z,97.49
2023-03-05T02:59:54.478Z,96.71
2023-03-05T03:02:21.363Z,96.01
2023-03-05T03:04:50.500Z,95.00
2023-03-05T03:10:08.846Z,94.74
2023-03-05T03:12:44.053Z,94.45
2023-03-05T03:15:13.364Z,93.61
2023-03-05T03:17:40.439Z,91.85
2023-03-05T03:20:09.493Z,91.87
2023-03-05T03:22:36.476Z,91.64
2023-03-05T03:25:05.012Z,92.03
2023-03-05T03:27:31.822Z,92.30
2023-03-05T03:30:02.706Z,92.81
2023-03-05T03:32:29.688Z,93.35
2023-03-05T03:34:56.291Z,93.78
2023-03-05T03:37:23.138Z,93.35
2023-03-05T03:39:49.733Z,93.72
2023-03-05T03:42:21.400Z,93.95
2023-03-05T03:44:48.234Z,94.62
2023-03-05T03:47:14.996Z,94.97
2023-03-05T03:49:41.744Z,94.69
2023-03-05T03:52:08.377Z,94.82
2023-03-05T03:54:34.994Z,95.29
2023-03-05T03:57:01.616Z,95.94
2023-03-05T03:59:28.499Z,95.36
2023-03-05T04:01:55.400Z,95.65
2023-03-05T04:04:21.993Z,95.80
2023-03-05T04:06:48.752Z,95.65
2023-03-05T04:09:15.400Z,95.99
2023-03-05T04:11:42.045Z,96.81
2023-03-05T04:14:08.687Z,96.61
2023-03-05T04:16:35.362Z,96.38
2023-03-05T04:19:02.083Z,95.41
2023-03-05T04:21:29.738Z,96.09
2023-03-05T04:23:56.380Z,96.19
2023-03-05T04:26:23.056Z,95.80
2023-03-05T04:28:49.732Z,95.80
2023-03-05T04:31:17.423Z,96.13
2023-03-05T04:33:44.213Z,96.08
2023-03-05T04:36:10.841Z,95.49
2023-03-05T04:38:37.541Z,95.58
2023-03-05T04:41:04.363Z,95.42
2023-03-05T04:43:31.062Z,94.68
2023-03-05T04:45:57.768Z,95.24
2023-03-05T04:48:24.503Z,95.56
2023-03-05T04:50:51.212Z,95.26
2023-03-05T04:53:18.165Z,95.18
2023-03-05T04:55:44.979Z,94.41
2023-03-05T04:58:11.550Z,94.06
2023-03-05T05:00:38.945Z,92.96
2023-03-05T05:03:05.723Z,91.96
2023-03-05T05:05:32.311Z,92.84
2023-03-05T05:07:59.188Z,92.44
2023-03-05T05:10:26.218Z,92.16
2023-03-05T05:12:53.044Z,91.85
2023-03-05T05:15:19.840Z,91.84
2023-03-05T05:17:46.693Z,92.35
2023-03-05T05:20:14.685Z,92.66
2023-03-05T05:22:41.564Z,92.24
2023-03-05T05:25:08.928Z,92.52
2023-03-05T05:27:35.538Z,92.37
2023-03-05T05:30:02.901Z,92.56
2023-03-05T05:32:29.807Z,92.97
2023-03-05T05:34:59.645Z,94.02
2023-03-05T05:37:27.417Z,94.03
2023-03-05T05:39:54.323Z,94.69
2023-03-05T05:42:24.062Z,95.69
2023-03-05T05:44:50.806Z,95.90
2023-03-05T05:47:18.428Z,95.84
2023-03-05T05:49:45.194Z,96.13
2023-03-05T05:52:12.356Z,95.66
2023-03-05T05:54:39.328Z,95.48
2023-03-05T05:57:06.698Z,96.60
2023-03-05T05:59:33.725Z,96.35
2023-03-05T06:02:00.529Z,96.47
2023-03-05T06:04:27.402Z,96.38
2023-03-05T06:06:54.016Z,96.36
2023-03-05T06:09:20.920Z,96.36
2023-03-05T06:11:47.631Z,95.99
2023-03-05T06:14:14.562Z,95.48
2023-03-05T06:16:42.361Z,95.50
2023-03-05T06:19:12.241Z,95.46
2023-03-05T06:21:39.474Z,95.91
2023-03-05T06:24:06.420Z,95.42
2023-03-05T06:26:33.320Z,96.06
2023-03-05T06:29:00.020Z,96.12
2023-03-05T06:31:28.289Z,96.48
2023-03-05T06:33:57.650Z,96.49
2023-03-05T06:36:25.983Z,96.71
2023-03-05T06:38:54.052Z,97.20
2023-03-05T06:41:23.269Z,99.32
2023-03-05T06:43:49.946Z,100.00
2023-03-05T06:46:22.769Z,100.00
2023-03-05T06:48:49.853Z,100.00
2023-03-05T06:51:18.688Z,100.00
2023-03-05T06:53:49.001Z,100.00
2023-03-05T06:56:17.103Z,100.00
2023-03-05T06:58:46.103Z,100.00
2023-03-05T07:01:14.109Z,100.00
2023-03-05T07:03:41.189Z,100.00
2023-03-05T07:06:10.689Z,100.00
2023-03-05T07:08:38.128Z,100.00
2023-03-05T07:11:10.036Z,100.00
2023-03-05T07:13:36.949Z,100.00
2023-03-05T07:16:13.705Z,100.00
2023-03-05T07:18:40.496Z,100.00
2023-03-05T07:21:08.500Z,100.00
2023-03-05T07:23:36.086Z,99.45
2023-03-05T07:26:04.398Z,98.83
2023-03-05T07:28:31.338Z,98.77
2023-03-05T07:30:59.305Z,97.53
2023-03-05T07:33:26.862Z,96.44
2023-03-05T07:35:53.925Z,96.50
2023-03-05T07:38:21.218Z,96.01
2023-03-05T07:40:47.991Z,95.09
2023-03-05T07:43:14.766Z,95.23
2023-03-05T07:45:45.055Z,95.22
2023-03-05T07:48:18.247Z,94.07
2023-03-05T07:50:45.002Z,94.39
2023-03-05T07:53:11.796Z,93.71
2023-03-05T07:55:48.021Z,93.74
2023-03-05T07:58:14.711Z,92.88
2023-03-05T08:00:41.679Z,93.18
2023-03-05T08:03:08.435Z,92.75
2023-03-05T08:05:35.110Z,91.78
2023-03-05T08:08:01.792Z,91.61
2023-03-05T08:10:28.445Z,91.08
2023-03-05T08:12:55.092Z,91.11
2023-03-05T08:15:21.831Z,91.39
2023-03-05T08:17:48.679Z,91.37
2023-03-05T08:20:15.383Z,90.72
2023-03-05T08:22:42.150Z,90.00
2023-03-05T08:25:10.138Z,90.87
2023-03-05T08:27:44.498Z,92.05
2023-03-05T08:30:14.400Z,92.30
2023-03-05T08:32:41.154Z,92.76
2023-03-05T08:35:09.717Z,93.13
2023-03-05T08:37:37.067Z,93.60
2023-03-05T08:40:05.257Z,93.80
2023-03-05T08:42:31.983Z,93.42
2023-03-05T08:44:58.582Z,94.08
2023-03-05T08:47:26.719Z,93.51
2023-03-05T08:49:57.350Z,92.79
2023-03-05T08:52:24.791Z,92.53
2023-03-05T08:54:51.483Z,92.62
2023-03-05T08:57:18.216Z,92.04
2023-03-05T08:59:44.952Z,91.50
2023-03-05T09:02:13.620Z,91.35
2023-03-05T09:04:40.625Z,90.46
2023-03-05T09:07:09.022Z,89.98
2023-03-05T09:09:36.562Z,90.36
2023-03-05T09:12:03.382Z,89.79
2023-03-05T09:14:30.252Z,90.89
2023-03-05T09:16:58.240Z,91.18
2023-03-05T09:19:25.111Z,90.38
2023-03-05T09:21:51.614Z,90.75
2023-03-05T09:24:18.108Z,90.54
2023-03-05T09:26:44.687Z,89.94
2023-03-05T09:29:12.519Z,89.34
2023-03-05T09:31:39.790Z,89.55
2023-03-05T09:34:08.296Z,88.13
2023-03-05T09:36:35.342Z,88.07
2023-03-05T09:39:02.378Z,88.22
2023-03-05T09:41:36.049Z,88.13
2023-03-05T09:44:11.612Z,87.09
2023-03-05T09:47:14.776Z,88.20
2023-03-05T09:49:55.528Z,86.87
2023-03-05T09:52:27.319Z,87.20
2023-03-05T09:54:57.250Z,87.02
2023-03-05T09:57:41.448Z,87.35
2023-03-05T10:00:38.976Z,87.00
2023-03-05T10:03:12.384Z,87.80
2023-03-05T10:05:53.334Z,86.72
2023-03-05T10:08:25.344Z,85.47
2023-03-05T10:10:54.252Z,84.70
2023-03-05T10:13:43.051Z,84.25
2023-03-05T10:16:46.171Z,83.45
2023-03-05T10:19:51.053Z,82.99
2023-03-05T10:22:28.173Z,82.89
2023-03-05T10:25:20.469Z,82.40
2023-03-05T10:27:54.074Z,81.09
2023-03-05T10:30:27.222Z,82.22
2023-03-05T10:33:26.134Z,83.35
2023-03-05T10:36:20.955Z,82.37
2023-03-05T10:39:00.119Z,82.88
2023-03-05T10:41:37.609Z,85.03
2023-03-05T10:44:26.656Z,84.98
2023-03-05T10:46:58.224Z,84.81
2023-03-05T10:49:36.593Z,83.32
2023-03-05T10:52:13.679Z,83.77
2023-03-05T10:54:42.924Z,83.30
2023-03-05T10:57:23.100Z,84.25
2023-03-05T10:59:55.234Z,85.15
2023-03-05T11:02:23.104Z,85.49
2023-03-05T11:04:50.970Z,86.77
2023-03-05T11:07:17.582Z,87.95
2023-03-05T11:10:02.121Z,86.22
2023-03-05T11:12:37.744Z,88.06
2023-03-05T11:15:10.384Z,87.80
2023-03-05T11:17:44.792Z,87.19
2023-03-05T11:20:29.273Z,86.59
2023-03-05T11:23:06.619Z,86.87
2023-03-05T11:25:35.012Z,86.58
2023-03-05T11:28:03.335Z,86.30
2023-03-05T11:30:35.753Z,87.04
2023-03-05T11:33:23.813Z,87.48
2023-03-05T11:35:52.162Z,87.47
2023-03-05T11:38:23.875Z,87.47
2023-03-05T11:40:53.393Z,87.65
2023-03-05T11:43:23.040Z,88.48
2023-03-05T11:45:54.674Z,88.30
2023-03-05T11:48:28.898Z,87.70
2023-03-05T11:51:01.399Z,87.48
2023-03-05T11:53:38.866Z,87.45
2023-03-05T11:56:19.035Z,89.02
2023-03-05T11:58:55.993Z,89.04
2023-03-05T12:01:25.663Z,88.98
2023-03-05T12:03:53.414Z,89.16
2023-03-05T12:06:29.764Z,89.83
2023-03-05T12:09:00.218Z,89.41
2023-03-05T12:11:32.408Z,87.86
2023-03-05T12:14:19.436Z,87.51
2023-03-05T12:16:52.150Z,88.26
2023-03-05T12:19:32.987Z,87.29
2023-03-05T12:21:59.768Z,88.14
2023-03-05T12:24:28.409Z,87.98
2023-03-05T12:27:04.731Z,87.89
2023-03-05T12:29:42.117Z,88.59
2023-03-05T12:32:44.271Z,92.56
2023-03-05T12:35:37.246Z,95.42
2023-03-05T12:38:39.791Z,95.84
2023-03-05T12:41:26.819Z,96.21
2023-03-05T12:44:06.365Z,95.15
2023-03-05T12:46:36.264Z,95.26
2023-03-05T12:49:18.282Z,94.23
2023-03-05T12:51:46.975Z,93.91
2023-03-05T12:54:29.490Z,91.41
2023-03-05T12:56:59.371Z,91.49
2023-03-05T12:59:34.674Z,89.55
2023-03-05T13:02:10.016Z,89.49
2023-03-05T13:04:46.489Z,87.72
2023-03-05T13:07:18.216Z,87.65
2023-03-05T13:09:56.486Z,86.74
2023-03-05T13:12:26.472Z,86.75
2023-03-05T13:15:05.603Z,86.28
2023-03-05T13:17:40.265Z,85.31
2023-03-05T13:20:37.747Z,84.86
2023-03-05T13:23:05.649Z,83.63
2023-03-05T13:25:32.320Z,84.43
2023-03-05T13:28:11.876Z,84.01
2023-03-05T13:30:38.757Z,83.78
2023-03-05T13:33:05.960Z,84.66
2023-03-05T13:35:33.660Z,84.37
2023-03-05T13:38:02.358Z,84.90
2023-03-05T13:40:32.273Z,85.38
2023-03-05T13:43:20.102Z,86.92
2023-03-05T13:45:55.157Z,88.78
2023-03-05T13:48:22.376Z,92.01
2023-03-05T13:50:59.497Z,95.32
2023-03-05T13:53:31.835Z,97.73
2023-03-05T13:56:07.707Z,100.00
2023-03-05T13:58:41.778Z,100.00
2023-03-05T14:01:38.245Z,100.00
2023-03-05T14:04:36.125Z,100.00
2023-03-05T14:07:30.150Z,100.00
2023-03-05T14:09:56.938Z,100.00
2023-03-05T14:12:32.630Z,98.78
2023-03-05T14:15:02.215Z,98.15
2023-03-05T14:17:30.137Z,97.57
2023-03-05T14:20:19.163Z,98.32
2023-03-05T14:22:48.472Z,98.53
2023-03-05T14:25:44.580Z,98.06
2023-03-05T14:28:16.743Z,98.20
2023-03-05T14:30:52.550Z,96.99
2023-03-05T14:33:28.486Z,96.62
2023-03-05T14:35:57.724Z,96.51
2023-03-05T14:38:28.960Z,96.64
2023-03-05T14:40:55.707Z,97.39
2023-03-05T14:43:22.357Z,96.80
2023-03-05T14:45:48.958Z,96.01
2023-03-05T14:48:18.768Z,96.04
2023-03-05T14:50:53.186Z,96.40
2023-03-05T14:53:24.067Z,96.65
2023-03-05T14:55:56.934Z,96.72
2023-03-05T14:58:27.637Z,96.20
2023-03-05T15:00:55.550Z,96.01
2023-03-05T15:03:23.064Z,95.34
2023-03-05T15:05:56.822Z,95.15
2023-03-05T15:08:25.248Z,94.71
2023-03-05T15:10:52.813Z,94.18
2023-03-05T15:13:20.046Z,92.54
2023-03-05T15:15:48.032Z,92.39
2023-03-05T15:18:17.652Z,91.17
2023-03-05T15:20:46.372Z,91.51
2023-03-05T15:23:13.124Z,91.12
2023-03-05T15:25:40.096Z,90.71
2023-03-05T15:28:07.391Z,90.87
2023-03-05T15:30:37.218Z,90.04
2023-03-05T15:33:06.790Z,90.81
2023-03-05T15:35:33.664Z,90.51
2023-03-05T15:38:00.571Z,90.42
2023-03-05T15:40:28.519Z,89.90
2023-03-05T15:42:56.712Z,90.14
2023-03-05T15:45:23.414Z,90.29
2023-03-05T15:47:51.887Z,89.88
2023-03-05T15:50:20.461Z,90.68
2023-03-05T15:52:49.256Z,91.32
2023-03-05T15:55:16.176Z,91.59
2023-03-05T15:57:45.010Z,92.70
2023-03-05T16:00:13.200Z,92.33
2023-03-05T16:02:39.892Z,92.96
2023-03-05T16:05:07.824Z,93.33
2023-03-05T16:07:38.909Z,93.04
2023-03-05T16:10:07.045Z,93.69
2023-03-05T16:12:40.915Z,94.30
2023-03-05T16:15:13.578Z,94.17
2023-03-05T16:17:44.017Z,94.11
2023-03-05T16:20:12.468Z,93.79
2023-03-05T16:22:39.147Z,94.21
2023-03-05T16:25:06.656Z,94.63
2023-03-05T16:27:33.758Z,94.73
2023-03-05T16:30:00.308Z,94.78
2023-03-05T16:32:27.015Z,94.69
2023-03-05T16:34:53.786Z,94.94
2023-03-05T16:37:23.218Z,95.33
2023-03-05T16:39:50.727Z,94.87
2023-03-05T16:42:17.523Z,95.87
2023-03-05T16:44:44.444Z,96.64
2023-03-05T16:47:12.285Z,96.73
2023-03-05T16:49:39.783Z,96.66
2023-03-05T16:52:18.303Z,96.84
2023-03-05T16:54:46.119Z,96.78
2023-03-05T16:57:12.802Z,97.21
2023-03-05T16:59:39.551Z,97.31
2023-03-05T17:02:06.406Z,97.93
2023-03-05T17:04:33.781Z,98.40
2023-03-05T17:07:00.270Z,98.28
2023-03-05T17:09:26.911Z,98.21
2023-03-05T17:11:54.479Z,98.56
2023-03-05T17:14:22.018Z,98.45
2023-03-05T17:16:49.015Z,98.12
2023-03-05T17:19:15.770Z,97.49
2023-03-05T17:21:42.898Z,97.70
2023-03-05T17:24:10.201Z,98.11
2023-03-05T17:26:37.571Z,97.88
2023-03-05T17:29:04.583Z,97.75
2023-03-05T17:31:31.258Z,97.75
2023-03-05T17:33:57.992Z,97.99
2023-03-05T17:36:25.482Z,97.78
2023-03-05T17:38:54.242Z,98.08
2023-03-05T17:41:21.250Z,97.77
2023-03-05T17:43:47.912Z,97.98
2023-03-05T17:46:15.645Z,97.99
2023-03-05T17:48:42.763Z,97.43
2023-03-05T17:51:12.191Z,97.84
2023-03-05T17:53:40.492Z,98.05
2023-03-05T17:56:12.271Z,98.41
2023-03-05T17:58:39.881Z,97.90
2023-03-05T18:01:07.902Z,97.96
2023-03-05T18:03:35.715Z,98.72
2023-03-05T18:06:02.529Z,98.51
2023-03-05T18:08:29.248Z,99.48
2023-03-05T18:10:55.894Z,99.06
2023-03-05T18:13:22.562Z,99.52
2023-03-05T18:15:49.084Z,99.25
2023-03-05T18:18:17.652Z,99.06
2023-03-05T18:20:45.119Z,99.30
2023-03-05T18:23:11.859Z,98.78
2023-03-05T18:25:38.419Z,98.60
2023-03-05T18:28:09.867Z,98.69
2023-03-05T18:30:37.335Z,98.89
2023-03-05T18:33:04.393Z,99.27
2023-03-05T18:35:32.316Z,99.29
2023-03-05T18:37:59.563Z,98.90
2023-03-05T18:40:29.035Z,98.43
2023-03-05T18:42:55.728Z,98.20
2023-03-05T18:45:23.146Z,98.56
2023-03-05T18:47:54.178Z,99.00
2023-03-05T18:50:22.019Z,100.00
2023-03-05T18:52:48.623Z,99.69
2023-03-05T18:55:22.040Z,99.52
2023-03-05T18:57:49.549Z,99.69
2023-03-05T19:00:18.359Z,99.67
2023-03-05T19:02:45.079Z,99.78
2023-03-05T19:05:14.071Z,100.00
2023-03-05T19:07:41.005Z,100.00
2023-03-05T19:10:10.842Z,100.00
2023-03-05T19:12:49.226Z,100.00
2023-03-05T19:15:16.856Z,100.00
2023-03-05T19:17:43.470Z,100.00
2023-03-05T19:20:14.212Z,100.00
2023-03-05T19:22:40.718Z,100.00
2023-03-05T19:25:08.628Z,100.00
2023-03-05T19:27:35.631Z,100.00
2023-03-05T19:30:02.518Z,100.00
2023-03-05T19:32:29.371Z,100.00
2023-03-05T19:34:58.128Z,100.00
2023-03-05T19:37:25.292Z,100.00
2023-03-05T19:39:52.085Z,100.00
2023-03-05T19:42:18.890Z,100.00
2023-03-05T19:44:45.831Z,100.00
2023-03-05T19:47:12.482Z,100.00
2023-03-05T19:49:39.106Z,100.00
2023-03-05T19:52:06.434Z,100.00
2023-03-05T19:54:33.349Z,100.00
2023-03-05T19:57:00.250Z,100.00
2023-03-05T19:59:27.009Z,100.00
2023-03-05T20:01:53.727Z,100.00
2023-03-05T20:04:22.730Z,100.00
2023-03-05T20:06:49.293Z,100.00
2023-03-05T20:09:16.521Z,100.00
2023-03-05T20:11:43.715Z,100.00
2023-03-05T20:14:13.123Z,100.00
2023-03-05T20:16:39.836Z,100.00
2023-03-05T20:19:07.753Z,100.00
2023-03-05T20:21:37.361Z,100.00
2023-03-05T20:24:09.665Z,100.00
2023-03-05T20:26:38.559Z,100.00
2023-03-05T20:29:05.668Z,100.00
2023-03-05T20:31:35.398Z,100.00
2023-03-05T20:34:02.133Z,100.00
2023-03-05T20:36:28.744Z,100.00
2023-03-05T20:38:55.979Z,100.00
2023-03-05T20:41:22.886Z,100.00
2023-03-05T20:43:51.440Z,100.00
2023-03-05T20:46:22.401Z,100.00
2023-03-05T20:48:51.645Z,100.00
2023-03-05T20:51:28.007Z,100.00
2023-03-05T20:53:58.776Z,100.00
2023-03-05T20:56:28.038Z,100.00
2023-03-05T20:58:55.868Z,100.00
2023-03-05T21:01:22.672Z,100.00
2023-03-05T21:03:49.967Z,100.00
2023-03-05T21:06:16.912Z,100.00
2023-03-05T21:08:44.830Z,100.00
2023-03-05T21:11:12.602Z,100.00
2023-03-05T21:13:39.534Z,100.00
2023-03-05T21:16:08.402Z,100.00
2023-03-05T21:18:35.909Z,100.00
2023-03-05T21:21:03.135Z,100.00
2023-03-05T21:23:29.909Z,100.00
2023-03-05T21:25:56.610Z,100.00
2023-03-05T21:28:23.315Z,100.00
2023-03-05T21:30:52.366Z,100.00
2023-03-05T21:33:23.334Z,100.00
2023-03-05T21:35:54.681Z,100.00
2023-03-05T21:38:23.236Z,100.00
2023-03-05T21:40:51.791Z,100.00
2023-03-05T21:43:21.523Z,100.00
2023-03-05T21:45:49.424Z,100.00
2023-03-05T21:48:16.338Z,100.00
2023-03-05T21:50:45.074Z,100.00
2023-03-05T21:53:12.964Z,100.00
2023-03-05T21:55:59.089Z,100.00
2023-03-05T21:58:25.798Z,100.00
2023-03-05T22:00:52.553Z,100.00
2023-03-05T22:03:20.103Z,100.00
2023-03-05T22:05:46.726Z,100.00
2023-03-05T22:08:13.481Z,100.00
2023-03-05T22:10:41.556Z,100.00
2023-03-05T22:13:10.216Z,100.00
2023-03-05T22:15:51.593Z,100.00
2023-03-05T22:18:24.024Z,100.00
2023-03-05T22:20:51.609Z,100.00
2023-03-05T22:23:19.463Z,100.00
2023-03-05T22:25:46.165Z,100.00
2023-03-05T22:28:13.832Z,100.00
2023-03-05T22:30:44.283Z,100.00
2023-03-05T22:33:11.319Z,100.00
2023-03-05T22:35:41.987Z,100.00
2023-03-05T22:38:10.240Z,100.00
2023-03-05T22:40:40.246Z,100.00
2023-03-05T22:43:06.945Z,100.00
2023-03-05T22:45:33.764Z,100.00
2023-03-05T22:48:00.411Z,100.00
2023-03-05T22:50:27.456Z,100.00
2023-03-05T22:52:54.141Z,100.00
2023-03-05T22:55:21.539Z,100.00
2023-03-05T22:57:48.833Z,100.00
2023-03-05T23:00:21.725Z,100.00
2023-03-05T23:02:48.356Z,100.00
2023-03-05T23:05:15.030Z,100.00
2023-03-05T23:07:44.069Z,100.00
2023-03-05T23:10:24.368Z,100.00
2023-03-05T23:12:53.947Z,100.00
2023-03-05T23:15:27.838Z,100.00
2023-03-05T23:17:54.712Z,100.00
2023-03-05T23:20:26.167Z,100.00
2023-03-05T23:22:56.272Z,100.00
2023-03-05T23:25:25.925Z,100.00
2023-03-05T23:27:52.798Z,100.00
2023-03-05T23:30:24.178Z,100.00
2023-03-05T23:33:02.909Z,100.00
2023-03-05T23:35:36.238Z,100.00
2023-03-05T23:38:06.478Z,100.00
2023-03-05T23:40:39.813Z,100.00
2023-03-05T23:43:06.534Z,100.00
2023-03-05T23:45:33.463Z,100.00
2023-03-05T23:48:00.229Z,100.00
2023-03-05T23:50:29.868Z,100.00
2023-03-05T23:52:57.106Z,100.00
2023-03-05T23:55:32.852Z,100.00
2023-03-05T23:57:59.498Z,100.00
